sensor_id;sensor_type;location;lat;lon;timestamp;pressure;altitude;pressure_sealevel;temperature;humidity
47556;BME280;33291;46.222;26.460;2022-08-19T00:00:16;96324.88;;;17.46;100.00
47556;BME280;33291;46.222;26.460;2022-08-19T00:02:43;96328.13;;;17.48;100.00
47556;BME280;33291;46.222;26.460;2022-08-19T00:05:10;96324.56;;;17.56;100.00
47556;BME280;33291;46.222;26.460;2022-08-19T00:07:36;96328.47;;;17.60;100.00
47556;BME280;33291;46.222;26.460;2022-08-19T00:10:04;96315.66;;;17.57;100.00
47556;BME280;33291;46.222;26.460;2022-08-19T00:12:30;96320.09;;;17.56;100.00
47556;BME280;33291;46.222;26.460;2022-08-19T00:14:56;96310.69;;;17.47;100.00
47556;BME280;33291;46.222;26.460;2022-08-19T00:17:21;96322.69;;;17.50;100.00
47556;BME280;33291;46.222;26.460;2022-08-19T00:19:47;96317.78;;;17.47;100.00
47556;BME280;33291;46.222;26.460;2022-08-19T00:22:12;96332.22;;;17.51;100.00
47556;BME280;33291;46.222;26.460;2022-08-19T00:24:38;96322.88;;;17.48;100.00
47556;BME280;33291;46.222;26.460;2022-08-19T00:27:06;96327.75;;;17.51;100.00
47556;BME280;33291;46.222;26.460;2022-08-19T00:29:32;96325.56;;;17.55;100.00
47556;BME280;33291;46.222;26.460;2022-08-19T00:31:57;96318.88;;;17.52;100.00
47556;BME280;33291;46.222;26.460;2022-08-19T00:34:25;96318.50;;;17.55;100.00
47556;BME280;33291;46.222;26.460;2022-08-19T00:36:54;96314.47;;;17.59;100.00
47556;BME280;33291;46.222;26.460;2022-08-19T00:39:19;96314.84;;;17.56;100.00
47556;BME280;33291;46.222;26.460;2022-08-19T00:41:46;96321.38;;;17.61;100.00
47556;BME280;33291;46.222;26.460;2022-08-19T00:44:25;96317.59;;;17.48;100.00
47556;BME280;33291;46.222;26.460;2022-08-19T00:46:53;96321.59;;;17.44;100.00
47556;BME280;33291;46.222;26.460;2022-08-19T00:49:23;96325.88;;;17.45;100.00
47556;BME280;33291;46.222;26.460;2022-08-19T00:54:29;96311.91;;;17.45;100.00
47556;BME280;33291;46.222;26.460;2022-08-19T00:56:57;96323.47;;;17.50;100.00
47556;BME280;33291;46.222;26.460;2022-08-19T00:59:23;96315.97;;;17.47;100.00
47556;BME280;33291;46.222;26.460;2022-08-19T01:01:49;96304.00;;;17.45;100.00
47556;BME280;33291;46.222;26.460;2022-08-19T01:04:14;96305.81;;;17.44;100.00
47556;BME280;33291;46.222;26.460;2022-08-19T01:06:40;96298.91;;;17.43;100.00
47556;BME280;33291;46.222;26.460;2022-08-19T01:09:07;96302.97;;;17.46;100.00
47556;BME280;33291;46.222;26.460;2022-08-19T01:11:35;96302.91;;;17.39;100.00
47556;BME280;33291;46.222;26.460;2022-08-19T01:14:02;96295.59;;;17.34;100.00
47556;BME280;33291;46.222;26.460;2022-08-19T01:16:28;96301.03;;;17.33;100.00
47556;BME280;33291;46.222;26.460;2022-08-19T01:18:55;96299.81;;;17.35;100.00
47556;BME280;33291;46.222;26.460;2022-08-19T01:23:50;96302.53;;;17.42;100.00
47556;BME280;33291;46.222;26.460;2022-08-19T01:26:19;96299.91;;;17.42;100.00
47556;BME280;33291;46.222;26.460;2022-08-19T01:28:46;96309.44;;;17.43;100.00
47556;BME280;33291;46.222;26.460;2022-08-19T01:31:18;96300.28;;;17.39;100.00
47556;BME280;33291;46.222;26.460;2022-08-19T01:33:46;96296.75;;;17.32;100.00
47556;BME280;33291;46.222;26.460;2022-08-19T01:36:15;96296.38;;;17.35;100.00
47556;BME280;33291;46.222;26.460;2022-08-19T01:38:42;96289.06;;;17.30;100.00
47556;BME280;33291;46.222;26.460;2022-08-19T01:41:10;96301.03;;;17.33;100.00
47556;BME280;33291;46.222;26.460;2022-08-19T01:43:36;96301.47;;;17.36;100.00
47556;BME280;33291;46.222;26.460;2022-08-19T01:46:02;96290.94;;;17.36;100.00
47556;BME280;33291;46.222;26.460;2022-08-19T01:48:33;96296.16;;;17.30;100.00
47556;BME280;33291;46.222;26.460;2022-08-19T01:50:59;96279.69;;;17.28;100.00
47556;BME280;33291;46.222;26.460;2022-08-19T01:53:25;96288.44;;;17.28;100.00
47556;BME280;33291;46.222;26.460;2022-08-19T01:55:50;96289.25;;;17.29;100.00
47556;BME280;33291;46.222;26.460;2022-08-19T01:58:19;96298.13;;;17.28;100.00
47556;BME280;33291;46.222;26.460;2022-08-19T02:00:46;96292.69;;;17.29;100.00
47556;BME280;33291;46.222;26.460;2022-08-19T02:03:12;96301.66;;;17.35;100.00
47556;BME280;33291;46.222;26.460;2022-08-19T02:05:39;96297.66;;;17.39;100.00
47556;BME280;33291;46.222;26.460;2022-08-19T02:08:06;96295.22;;;17.37;100.00
47556;BME280;33291;46.222;26.460;2022-08-19T02:10:31;96295.63;;;17.41;100.00
47556;BME280;33291;46.222;26.460;2022-08-19T02:12:57;96302.16;;;17.45;100.00
47556;BME280;33291;46.222;26.460;2022-08-19T02:15:22;96295.22;;;17.37;100.00
47556;BME280;33291;46.222;26.460;2022-08-19T02:17:48;96291.41;;;17.40;100.00
47556;BME280;33291;46.222;26.460;2022-08-19T02:20:15;96300.53;;;17.44;100.00
47556;BME280;33291;46.222;26.460;2022-08-19T02:22:41;96302.53;;;17.42;100.00
47556;BME280;33291;46.222;26.460;2022-08-19T02:25:09;96293.38;;;17.38;100.00
47556;BME280;33291;46.222;26.460;2022-08-19T02:27:35;96307.81;;;17.42;100.00
47556;BME280;33291;46.222;26.460;2022-08-19T02:30:01;96310.44;;;17.42;100.00
47556;BME280;33291;46.222;26.460;2022-08-19T02:32:26;96307.38;;;17.38;100.00
47556;BME280;33291;46.222;26.460;2022-08-19T02:34:52;96311.81;;;17.38;100.00
47556;BME280;33291;46.222;26.460;2022-08-19T02:37:18;96314.44;;;17.38;100.00
47556;BME280;33291;46.222;26.460;2022-08-19T02:40:02;96308.56;;;17.36;100.00
47556;BME280;33291;46.222;26.460;2022-08-19T02:42:28;96305.75;;;17.37;100.00
47556;BME280;33291;46.222;26.460;2022-08-19T02:44:55;96304.28;;;17.35;100.00
47556;BME280;33291;46.222;26.460;2022-08-19T02:47:21;96289.00;;;17.23;100.00
47556;BME280;33291;46.222;26.460;2022-08-19T02:49:46;96307.28;;;17.32;100.00
47556;BME280;33291;46.222;26.460;2022-08-19T02:52:15;96310.53;;;17.34;100.00
47556;BME280;33291;46.222;26.460;2022-08-19T02:54:40;96284.09;;;17.20;100.00
47556;BME280;33291;46.222;26.460;2022-08-19T02:57:06;96292.63;;;17.22;100.00
47556;BME280;33291;46.222;26.460;2022-08-19T02:59:32;96315.19;;;17.32;100.00
47556;BME280;33291;46.222;26.460;2022-08-19T03:01:58;96315.38;;;17.30;100.00
47556;BME280;33291;46.222;26.460;2022-08-19T03:04:23;96314.09;;;17.26;100.00
47556;BME280;33291;46.222;26.460;2022-08-19T03:06:50;96307.41;;;17.23;100.00
47556;BME280;33291;46.222;26.460;2022-08-19T03:09:18;96317.19;;;17.30;100.00
47556;BME280;33291;46.222;26.460;2022-08-19T03:11:44;96308.59;;;17.21;100.00
47556;BME280;33291;46.222;26.460;2022-08-19T03:14:10;96298.09;;;17.06;100.00
47556;BME280;33291;46.222;26.460;2022-08-19T03:16:48;96310.13;;;17.15;100.00
47556;BME280;33291;46.222;26.460;2022-08-19T03:19:16;96317.41;;;17.13;100.00
47556;BME280;33291;46.222;26.460;2022-08-19T03:21:43;96324.56;;;17.19;100.00
47556;BME280;33291;46.222;26.460;2022-08-19T03:24:12;96336.75;;;17.20;100.00
47556;BME280;33291;46.222;26.460;2022-08-19T03:26:41;96330.19;;;17.16;100.00
47556;BME280;33291;46.222;26.460;2022-08-19T03:29:07;96327.88;;;17.07;100.00
47556;BME280;33291;46.222;26.460;2022-08-19T03:31:34;96334.19;;;17.12;100.00
47556;BME280;33291;46.222;26.460;2022-08-19T03:33:59;96335.47;;;17.16;100.00
47556;BME280;33291;46.222;26.460;2022-08-19T03:36:26;96342.75;;;17.14;100.00
47556;BME280;33291;46.222;26.460;2022-08-19T03:38:55;96340.56;;;17.03;100.00
47556;BME280;33291;46.222;26.460;2022-08-19T03:41:26;96355.97;;;17.06;100.00
47556;BME280;33291;46.222;26.460;2022-08-19T03:43:53;96339.47;;;16.97;100.00
47556;BME280;33291;46.222;26.460;2022-08-19T03:46:25;96351.88;;;17.03;100.00
47556;BME280;33291;46.222;26.460;2022-08-19T03:48:53;96352.91;;;17.02;100.00
47556;BME280;33291;46.222;26.460;2022-08-19T03:51:24;96355.38;;;17.04;100.00
47556;BME280;33291;46.222;26.460;2022-08-19T03:53:51;96368.78;;;17.09;100.00
47556;BME280;33291;46.222;26.460;2022-08-19T03:56:17;96360.50;;;17.12;100.00
47556;BME280;33291;46.222;26.460;2022-08-19T03:58:43;96368.41;;;17.12;100.00
47556;BME280;33291;46.222;26.460;2022-08-19T04:01:11;96362.16;;;17.13;100.00
47556;BME280;33291;46.222;26.460;2022-08-19T04:03:38;96365.78;;;17.12;100.00
47556;BME280;33291;46.222;26.460;2022-08-19T04:06:14;96363.78;;;17.14;100.00
47556;BME280;33291;46.222;26.460;2022-08-19T04:08:40;96365.69;;;17.20;100.00
47556;BME280;33291;46.222;26.460;2022-08-19T04:11:08;96364.31;;;17.25;100.00
47556;BME280;33291;46.222;26.460;2022-08-19T04:13:34;96360.25;;;17.22;100.00
47556;BME280;33291;46.222;26.460;2022-08-19T04:16:00;96358.84;;;17.26;100.00
47556;BME280;33291;46.222;26.460;2022-08-19T04:18:25;96363.38;;;17.32;100.00
47556;BME280;33291;46.222;26.460;2022-08-19T04:20:51;96361.22;;;17.36;100.00
47556;BME280;33291;46.222;26.460;2022-08-19T04:23:17;96352.31;;;17.37;100.00
47556;BME280;33291;46.222;26.460;2022-08-19T04:25:44;96354.84;;;17.45;100.00
47556;BME280;33291;46.222;26.460;2022-08-19T04:28:11;96344.91;;;17.47;100.00
47556;BME280;33291;46.222;26.460;2022-08-19T04:30:43;96353.72;;;17.54;100.00
47556;BME280;33291;46.222;26.460;2022-08-19T04:33:10;96340.56;;;17.54;100.00
47556;BME280;33291;46.222;26.460;2022-08-19T04:35:38;96342.00;;;17.57;100.00
47556;BME280;33291;46.222;26.460;2022-08-19T04:38:05;96329.31;;;17.46;100.00
47556;BME280;33291;46.222;26.460;2022-08-19T04:40:31;96340.97;;;17.58;100.00
47556;BME280;33291;46.222;26.460;2022-08-19T04:43:14;96343.31;;;17.68;100.00
47556;BME280;33291;46.222;26.460;2022-08-19T04:45:44;96348.66;;;17.74;100.00
47556;BME280;33291;46.222;26.460;2022-08-19T04:48:10;96354.63;;;17.83;100.00
47556;BME280;33291;46.222;26.460;2022-08-19T04:50:36;96336.56;;;17.80;100.00
47556;BME280;33291;46.222;26.460;2022-08-19T04:53:01;96352.34;;;17.95;100.00
47556;BME280;33291;46.222;26.460;2022-08-19T04:55:28;96356.84;;;18.01;100.00
47556;BME280;33291;46.222;26.460;2022-08-19T04:57:54;96356.66;;;18.03;100.00
47556;BME280;33291;46.222;26.460;2022-08-19T05:00:20;96358.91;;;18.06;100.00
47556;BME280;33291;46.222;26.460;2022-08-19T05:02:45;96358.16;;;18.12;100.00
47556;BME280;33291;46.222;26.460;2022-08-19T05:05:11;96346.81;;;18.11;100.00
47556;BME280;33291;46.222;26.460;2022-08-19T05:07:37;96344.63;;;18.22;100.00
47556;BME280;33291;46.222;26.460;2022-08-19T05:10:05;96346.69;;;18.26;100.00
47556;BME280;33291;46.222;26.460;2022-08-19T05:12:30;96351.66;;;18.36;100.00
47556;BME280;33291;46.222;26.460;2022-08-19T05:14:57;96352.34;;;18.45;100.00
47556;BME280;33291;46.222;26.460;2022-08-19T05:17:23;96356.84;;;18.51;100.00
47556;BME280;33291;46.222;26.460;2022-08-19T05:19:49;96347.56;;;18.62;100.00
47556;BME280;33291;46.222;26.460;2022-08-19T05:22:33;96343.34;;;18.68;100.00
47556;BME280;33291;46.222;26.460;2022-08-19T05:25:05;96342.59;;;18.74;100.00
47556;BME280;33291;46.222;26.460;2022-08-19T05:27:31;96345.44;;;18.79;100.00
47556;BME280;33291;46.222;26.460;2022-08-19T05:29:57;96341.47;;;18.90;100.00
47556;BME280;33291;46.222;26.460;2022-08-19T05:32:23;96333.34;;;18.91;100.00
47556;BME280;33291;46.222;26.460;2022-08-19T05:34:49;96333.63;;;19.03;100.00
47556;BME280;33291;46.222;26.460;2022-08-19T05:37:14;96335.88;;;19.13;100.00
47556;BME280;33291;46.222;26.460;2022-08-19T05:39:40;96336.53;;;19.22;100.00
47556;BME280;33291;46.222;26.460;2022-08-19T05:42:08;96334.34;;;19.32;100.00
47556;BME280;33291;46.222;26.460;2022-08-19T05:44:37;96322.19;;;19.38;100.00
47556;BME280;33291;46.222;26.460;2022-08-19T05:47:06;96327.88;;;19.48;100.00
47556;BME280;33291;46.222;26.460;2022-08-19T05:49:34;96322.63;;;19.55;99.32
47556;BME280;33291;46.222;26.460;2022-08-19T05:52:06;96325.91;;;19.63;99.09
47556;BME280;33291;46.222;26.460;2022-08-19T05:54:33;96320.81;;;19.75;98.63
47556;BME280;33291;46.222;26.460;2022-08-19T05:57:00;96305.56;;;19.70;98.54
47556;BME280;33291;46.222;26.460;2022-08-19T05:59:26;96326.59;;;19.92;98.47
47556;BME280;33291;46.222;26.460;2022-08-19T06:01:52;96328.44;;;19.98;98.03
47556;BME280;33291;46.222;26.460;2022-08-19T06:04:20;96294.25;;;19.97;97.04
47556;BME280;33291;46.222;26.460;2022-08-19T06:06:48;96319.88;;;20.23;96.37
47556;BME280;33291;46.222;26.460;2022-08-19T06:09:14;96330.03;;;20.33;95.79
47556;BME280;33291;46.222;26.460;2022-08-19T06:11:51;96331.25;;;20.44;95.61
47556;BME280;33291;46.222;26.460;2022-08-19T06:14:22;96323.50;;;20.55;95.34
47556;BME280;33291;46.222;26.460;2022-08-19T06:16:49;96321.06;;;20.61;95.27
47556;BME280;33291;46.222;26.460;2022-08-19T06:19:19;96317.84;;;20.65;95.07
47556;BME280;33291;46.222;26.460;2022-08-19T06:21:46;96321.03;;;20.81;94.76
47556;BME280;33291;46.222;26.460;2022-08-19T06:24:14;96316.72;;;20.93;93.95
47556;BME280;33291;46.222;26.460;2022-08-19T06:26:43;96316.47;;;21.08;93.54
47556;BME280;33291;46.222;26.460;2022-08-19T06:29:14;96309.97;;;21.10;93.11
47556;BME280;33291;46.222;26.460;2022-08-19T06:31:45;96328.78;;;21.34;92.59
47556;BME280;33291;46.222;26.460;2022-08-19T06:34:11;96331.22;;;21.42;92.54
47556;BME280;33291;46.222;26.460;2022-08-19T06:36:40;96300.84;;;21.38;92.25
47556;BME280;33291;46.222;26.460;2022-08-19T06:39:13;96327.06;;;21.60;92.54
47556;BME280;33291;46.222;26.460;2022-08-19T06:41:44;96322.28;;;21.75;91.88
47556;BME280;33291;46.222;26.460;2022-08-19T06:44:11;96317.09;;;21.87;91.71
47556;BME280;33291;46.222;26.460;2022-08-19T06:46:38;96319.03;;;21.98;90.99
47556;BME280;33291;46.222;26.460;2022-08-19T06:49:04;96321.81;;;22.10;90.72
47556;BME280;33291;46.222;26.460;2022-08-19T06:51:32;96321.28;;;22.27;90.08
47556;BME280;33291;46.222;26.460;2022-08-19T06:53:58;96328.28;;;22.46;89.03
47556;BME280;33291;46.222;26.460;2022-08-19T06:56:28;96329.78;;;22.61;88.54
47556;BME280;33291;46.222;26.460;2022-08-19T06:58:57;96333.78;;;22.70;88.38
47556;BME280;33291;46.222;26.460;2022-08-19T07:01:23;96334.50;;;22.77;87.48
47556;BME280;33291;46.222;26.460;2022-08-19T07:03:49;96340.22;;;22.81;87.65
47556;BME280;33291;46.222;26.460;2022-08-19T07:06:16;96325.75;;;22.95;85.46
47556;BME280;33291;46.222;26.460;2022-08-19T07:08:47;96340.31;;;23.11;83.46
47556;BME280;33291;46.222;26.460;2022-08-19T07:11:16;96331.81;;;23.21;80.46
47556;BME280;33291;46.222;26.460;2022-08-19T07:13:43;96332.78;;;23.27;79.16
47556;BME280;33291;46.222;26.460;2022-08-19T07:16:15;96325.75;;;23.32;78.80
47556;BME280;33291;46.222;26.460;2022-08-19T07:18:42;96339.81;;;23.51;71.00
47556;BME280;33291;46.222;26.460;2022-08-19T07:21:14;96332.41;;;23.53;72.06
47556;BME280;33291;46.222;26.460;2022-08-19T07:23:41;96320.75;;;23.54;74.44
47556;BME280;33291;46.222;26.460;2022-08-19T07:26:28;96337.59;;;23.78;70.65
47556;BME280;33291;46.222;26.460;2022-08-19T07:28:54;96327.59;;;23.92;66.08
47556;BME280;33291;46.222;26.460;2022-08-19T07:31:23;96339.53;;;24.02;67.31
47556;BME280;33291;46.222;26.460;2022-08-19T07:33:51;96339.00;;;24.11;67.95
47556;BME280;33291;46.222;26.460;2022-08-19T07:36:21;96340.84;;;24.23;66.97
47556;BME280;33291;46.222;26.460;2022-08-19T07:38:49;96342.81;;;24.27;67.34
47556;BME280;33291;46.222;26.460;2022-08-19T07:41:20;96342.72;;;24.34;66.31
47556;BME280;33291;46.222;26.460;2022-08-19T07:43:46;96337.16;;;24.47;67.65
47556;BME280;33291;46.222;26.460;2022-08-19T07:46:13;96329.44;;;24.58;66.10
47556;BME280;33291;46.222;26.460;2022-08-19T07:48:43;96336.03;;;24.79;65.17
47556;BME280;33291;46.222;26.460;2022-08-19T07:51:14;96341.25;;;24.86;65.12
47556;BME280;33291;46.222;26.460;2022-08-19T07:53:41;96338.69;;;25.03;64.62
47556;BME280;33291;46.222;26.460;2022-08-19T07:56:08;96332.03;;;25.17;62.93
47556;BME280;33291;46.222;26.460;2022-08-19T07:58:37;96331.78;;;25.30;61.47
47556;BME280;33291;46.222;26.460;2022-08-19T08:01:05;96334.06;;;25.39;60.55
47556;BME280;33291;46.222;26.460;2022-08-19T08:03:31;96323.47;;;25.56;59.12
47556;BME280;33291;46.222;26.460;2022-08-19T08:06:16;96330.19;;;25.58;57.98
47556;BME280;33291;46.222;26.460;2022-08-19T08:09:01;96324.03;;;25.58;58.35
47556;BME280;33291;46.222;26.460;2022-08-19T08:11:47;96325.19;;;25.62;58.64
47556;BME280;33291;46.222;26.460;2022-08-19T08:14:21;96330.94;;;25.70;57.03
47556;BME280;33291;46.222;26.460;2022-08-19T08:16:49;96334.19;;;25.73;57.37
47556;BME280;33291;46.222;26.460;2022-08-19T08:19:16;96328.94;;;25.78;56.37
47556;BME280;33291;46.222;26.460;2022-08-19T08:21:42;96326.69;;;25.86;56.28
47556;BME280;33291;46.222;26.460;2022-08-19T08:24:08;96324.75;;;25.82;56.08
47556;BME280;33291;46.222;26.460;2022-08-19T08:26:34;96315.03;;;25.76;57.67
47556;BME280;33291;46.222;26.460;2022-08-19T08:28:59;96327.41;;;25.82;56.55
47556;BME280;33291;46.222;26.460;2022-08-19T08:31:25;96325.06;;;25.85;56.47
47556;BME280;33291;46.222;26.460;2022-08-19T08:33:51;96324.34;;;25.90;57.37
47556;BME280;33291;46.222;26.460;2022-08-19T08:36:16;96297.91;;;25.88;57.30
47556;BME280;33291;46.222;26.460;2022-08-19T08:38:44;96322.53;;;26.08;57.00
47556;BME280;33291;46.222;26.460;2022-08-19T08:41:25;96317.63;;;26.16;56.77
47556;BME280;33291;46.222;26.460;2022-08-19T08:43:54;96320.91;;;26.23;55.16
47556;BME280;33291;46.222;26.460;2022-08-19T08:46:40;96315.97;;;26.32;53.59
47556;BME280;33291;46.222;26.460;2022-08-19T08:49:31;96323.66;;;26.46;53.15
47556;BME280;33291;46.222;26.460;2022-08-19T08:52:10;96323.72;;;26.51;51.59
47556;BME280;33291;46.222;26.460;2022-08-19T08:54:44;96325.59;;;26.50;51.91
47556;BME280;33291;46.222;26.460;2022-08-19T08:57:15;96320.25;;;26.50;52.95
47556;BME280;33291;46.222;26.460;2022-08-19T08:59:45;96330.75;;;26.57;53.18
47556;BME280;33291;46.222;26.460;2022-08-19T09:02:17;96333.63;;;26.67;51.30
47556;BME280;33291;46.222;26.460;2022-08-19T09:04:43;96326.06;;;26.64;50.19
47556;BME280;33291;46.222;26.460;2022-08-19T09:15:43;96317.44;;;26.96;50.34
47556;BME280;33291;46.222;26.460;2022-08-19T09:18:11;96329.25;;;27.00;50.43
47556;BME280;33291;46.222;26.460;2022-08-19T09:20:37;96324.03;;;27.10;49.52
47556;BME280;33291;46.222;26.460;2022-08-19T09:23:02;96320.19;;;27.01;50.25
47556;BME280;33291;46.222;26.460;2022-08-19T09:25:28;96329.06;;;27.07;50.90
47556;BME280;33291;46.222;26.460;2022-08-19T09:27:55;96323.53;;;27.13;50.51
47556;BME280;33291;46.222;26.460;2022-08-19T09:30:24;96330.25;;;27.16;49.83
47556;BME280;33291;46.222;26.460;2022-08-19T09:32:50;96319.28;;;27.18;49.61
47556;BME280;33291;46.222;26.460;2022-08-19T09:35:23;96307.59;;;27.24;49.09
47556;BME280;33291;46.222;26.460;2022-08-19T09:37:50;96322.00;;;27.40;48.44
47556;BME280;33291;46.222;26.460;2022-08-19T09:40:16;96307.34;;;27.25;49.36
47556;BME280;33291;46.222;26.460;2022-08-19T09:42:43;96316.84;;;27.33;49.42
47556;BME280;33291;46.222;26.460;2022-08-19T09:45:10;96319.56;;;27.38;48.43
47556;BME280;33291;46.222;26.460;2022-08-19T09:47:36;96316.19;;;27.26;49.43
47556;BME280;33291;46.222;26.460;2022-08-19T09:50:05;96314.66;;;27.30;48.86
47556;BME280;33291;46.222;26.460;2022-08-19T09:52:32;96301.75;;;27.27;49.99
47556;BME280;33291;46.222;26.460;2022-08-19T09:54:58;96316.94;;;27.43;49.07
47556;BME280;33291;46.222;26.460;2022-08-19T09:57:24;96318.88;;;27.48;47.53
47556;BME280;33291;46.222;26.460;2022-08-19T09:59:49;96303.81;;;27.42;47.13
47556;BME280;33291;46.222;26.460;2022-08-19T10:02:15;96300.84;;;27.38;47.70
47556;BME280;33291;46.222;26.460;2022-08-19T10:04:40;96305.94;;;27.40;47.42
47556;BME280;33291;46.222;26.460;2022-08-19T10:07:24;96308.09;;;27.38;47.69
47556;BME280;33291;46.222;26.460;2022-08-19T10:09:50;96309.28;;;27.52;46.11
47556;BME280;33291;46.222;26.460;2022-08-19T10:12:15;96308.00;;;27.55;46.02
47556;BME280;33291;46.222;26.460;2022-08-19T10:14:41;96301.81;;;27.54;46.03
47556;BME280;33291;46.222;26.460;2022-08-19T10:17:07;96311.78;;;27.59;46.27
47556;BME280;33291;46.222;26.460;2022-08-19T10:19:33;96305.94;;;27.62;46.25
47556;BME280;33291;46.222;26.460;2022-08-19T10:22:07;96295.66;;;27.54;46.90
47556;BME280;33291;46.222;26.460;2022-08-19T10:24:34;96297.66;;;27.63;46.24
47556;BME280;33291;46.222;26.460;2022-08-19T10:27:00;96296.31;;;27.66;46.09
47556;BME280;33291;46.222;26.460;2022-08-19T10:29:29;96273.66;;;27.46;46.57
47556;BME280;33291;46.222;26.460;2022-08-19T10:31:57;96283.16;;;27.59;46.08
47556;BME280;33291;46.222;26.460;2022-08-19T10:34:24;96304.41;;;27.71;46.59
47556;BME280;33291;46.222;26.460;2022-08-19T10:36:49;96303.31;;;27.72;46.55
47556;BME280;33291;46.222;26.460;2022-08-19T10:39:16;96305.00;;;27.78;45.63
47556;BME280;33291;46.222;26.460;2022-08-19T10:41:42;96300.72;;;27.77;45.95
47556;BME280;33291;46.222;26.460;2022-08-19T10:44:11;96289.69;;;27.74;45.91
47556;BME280;33291;46.222;26.460;2022-08-19T10:46:40;96285.47;;;27.78;45.59
47556;BME280;33291;46.222;26.460;2022-08-19T10:49:07;96293.22;;;27.79;46.71
47556;BME280;33291;46.222;26.460;2022-08-19T10:51:33;96285.75;;;27.81;46.24
47556;BME280;33291;46.222;26.460;2022-08-19T10:54:18;96286.06;;;27.85;46.56
47556;BME280;33291;46.222;26.460;2022-08-19T10:56:44;96277.78;;;27.87;47.68
47556;BME280;33291;46.222;26.460;2022-08-19T10:59:26;96281.13;;;27.99;46.88
47556;BME280;33291;46.222;26.460;2022-08-19T11:02:08;96280.91;;;28.06;46.96
47556;BME280;33291;46.222;26.460;2022-08-19T11:04:36;96268.34;;;28.06;46.50
47556;BME280;33291;46.222;26.460;2022-08-19T11:07:02;96283.13;;;28.14;45.44
47556;BME280;33291;46.222;26.460;2022-08-19T11:09:28;96276.94;;;28.13;44.89
47556;BME280;33291;46.222;26.460;2022-08-19T11:11:54;96288.59;;;27.97;45.50
47556;BME280;33291;46.222;26.460;2022-08-19T11:14:22;96282.56;;;27.84;46.36
47556;BME280;33291;46.222;26.460;2022-08-19T11:16:49;96279.84;;;27.79;46.71
47556;BME280;33291;46.222;26.460;2022-08-19T11:19:16;96286.00;;;27.80;47.02
47556;BME280;33291;46.222;26.460;2022-08-19T11:21:46;96301.81;;;27.81;45.54
47556;BME280;33291;46.222;26.460;2022-08-19T11:24:15;96282.53;;;27.79;45.46
47556;BME280;33291;46.222;26.460;2022-08-19T11:26:42;96273.44;;;27.80;45.77
47556;BME280;33291;46.222;26.460;2022-08-19T11:29:09;96274.53;;;27.84;46.23
47556;BME280;33291;46.222;26.460;2022-08-19T11:31:43;96275.13;;;27.92;46.21
47556;BME280;33291;46.222;26.460;2022-08-19T11:34:12;96251.03;;;27.87;46.21
47556;BME280;33291;46.222;26.460;2022-08-19T11:36:41;96268.59;;;28.05;45.38
47556;BME280;33291;46.222;26.460;2022-08-19T11:39:09;96268.34;;;28.06;45.19
47556;BME280;33291;46.222;26.460;2022-08-19T11:41:35;96270.78;;;28.13;45.83
47556;BME280;33291;46.222;26.460;2022-08-19T11:44:00;96271.13;;;28.22;43.97
47556;BME280;33291;46.222;26.460;2022-08-19T11:46:28;96253.91;;;28.12;43.59
47556;BME280;33291;46.222;26.460;2022-08-19T11:48:59;96263.88;;;28.22;44.28
47556;BME280;33291;46.222;26.460;2022-08-19T11:51:26;96270.09;;;28.28;44.85
47556;BME280;33291;46.222;26.460;2022-08-19T11:53:54;96270.41;;;28.36;44.14
47556;BME280;33291;46.222;26.460;2022-08-19T11:56:20;96270.72;;;28.45;43.21
47556;BME280;33291;46.222;26.460;2022-08-19T11:58:46;96271.28;;;28.47;43.29
47556;BME280;33291;46.222;26.460;2022-08-19T12:01:14;96263.78;;;28.49;43.26
47556;BME280;33291;46.222;26.460;2022-08-19T12:03:42;96268.97;;;28.61;43.45
47556;BME280;33291;46.222;26.460;2022-08-19T12:06:10;96257.91;;;28.52;43.97
47556;BME280;33291;46.222;26.460;2022-08-19T12:08:39;96261.16;;;28.54;44.68
47556;BME280;33291;46.222;26.460;2022-08-19T12:11:04;96256.88;;;28.59;44.44
47556;BME280;33291;46.222;26.460;2022-08-19T12:13:33;96256.38;;;28.62;43.76
47556;BME280;33291;46.222;26.460;2022-08-19T12:15:58;96258.53;;;28.60;43.26
47556;BME280;33291;46.222;26.460;2022-08-19T12:18:24;96254.97;;;28.49;44.04
47556;BME280;33291;46.222;26.460;2022-08-19T12:20:51;96258.44;;;28.49;43.96
47556;BME280;33291;46.222;26.460;2022-08-19T12:23:17;96242.63;;;28.48;44.13
47556;BME280;33291;46.222;26.460;2022-08-19T12:25:46;96233.47;;;28.44;42.73
47556;BME280;33291;46.222;26.460;2022-08-19T12:28:16;96247.13;;;28.42;43.61
47556;BME280;33291;46.222;26.460;2022-08-19T12:30:42;96249.00;;;28.36;43.63
47556;BME280;33291;46.222;26.460;2022-08-19T12:33:08;96255.16;;;28.37;42.92
47556;BME280;33291;46.222;26.460;2022-08-19T12:35:33;96259.44;;;28.38;43.44
47556;BME280;33291;46.222;26.460;2022-08-19T12:37:59;96250.91;;;28.41;42.75
47556;BME280;33291;46.222;26.460;2022-08-19T12:40:25;96239.66;;;28.44;43.10
47556;BME280;33291;46.222;26.460;2022-08-19T12:42:50;96256.84;;;28.53;42.58
47556;BME280;33291;46.222;26.460;2022-08-19T12:45:16;96252.38;;;28.59;42.99
47556;BME280;33291;46.222;26.460;2022-08-19T12:47:41;96248.66;;;28.65;42.23
47556;BME280;33291;46.222;26.460;2022-08-19T12:50:08;96246.25;;;28.69;42.95
47556;BME280;33291;46.222;26.460;2022-08-19T12:52:35;96253.78;;;28.77;42.71
47556;BME280;33291;46.222;26.460;2022-08-19T12:55:07;96254.06;;;28.81;42.22
47556;BME280;33291;46.222;26.460;2022-08-19T12:57:33;96260.75;;;28.78;42.02
47556;BME280;33291;46.222;26.460;2022-08-19T13:00:11;96242.50;;;28.75;41.87
47556;BME280;33291;46.222;26.460;2022-08-19T13:02:39;96237.69;;;28.77;40.98